sensor_id;sensor_type;location;lat;lon;timestamp;temperature;humidity
16515;DHT22;8370;52.556;7.970;2022-11-11T00:01:13;10.30;99.90
16515;DHT22;8370;52.556;7.970;2022-11-11T00:03:40;10.30;99.90
16515;DHT22;8370;52.556;7.970;2022-11-11T00:06:17;10.30;99.90
16515;DHT22;8370;52.556;7.970;2022-11-11T00:08:45;10.30;99.90
16515;DHT22;8370;52.556;7.970;2022-11-11T00:11:12;10.20;99.90
16515;DHT22;8370;52.556;7.970;2022-11-11T00:13:39;10.20;99.90
16515;DHT22;8370;52.556;7.970;2022-11-11T00:16:07;10.20;99.90
16515;DHT22;8370;52.556;7.970;2022-11-11T00:18:33;10.30;99.90
16515;DHT22;8370;52.556;7.970;2022-11-11T00:21:17;10.20;99.90
16515;DHT22;8370;52.556;7.970;2022-11-11T00:23:51;10.20;99.90
16515;DHT22;8370;52.556;7.970;2022-11-11T00:26:36;10.20;99.90
16515;DHT22;8370;52.556;7.970;2022-11-11T00:29:01;10.20;99.90
16515;DHT22;8370;52.556;7.970;2022-11-11T00:31:27;10.20;99.90
16515;DHT22;8370;52.556;7.970;2022-11-11T00:33:52;10.10;99.90
16515;DHT22;8370;52.556;7.970;2022-11-11T00:36:18;10.10;99.90
16515;DHT22;8370;52.556;7.970;2022-11-11T00:38:44;10.10;99.90
16515;DHT22;8370;52.556;7.970;2022-11-11T00:41:10;10.10;99.90
16515;DHT22;8370;52.556;7.970;2022-11-11T00:43:36;10.10;99.90
16515;DHT22;8370;52.556;7.970;2022-11-11T00:46:01;10.10;99.90
16515;DHT22;8370;52.556;7.970;2022-11-11T00:48:45;10.10;99.90
16515;DHT22;8370;52.556;7.970;2022-11-11T00:51:29;10.10;99.90
16515;DHT22;8370;52.556;7.970;2022-11-11T00:53:55;10.00;99.90
16515;DHT22;8370;52.556;7.970;2022-11-11T00:56:22;10.00;99.90
16515;DHT22;8370;52.556;7.970;2022-11-11T00:58:48;10.00;99.90
16515;DHT22;8370;52.556;7.970;2022-11-11T01:01:13;10.00;99.90
16515;DHT22;8370;52.556;7.970;2022-11-11T01:03:39;10.00;99.90
16515;DHT22;8370;52.556;7.970;2022-11-11T01:06:05;10.00;99.90
16515;DHT22;8370;52.556;7.970;2022-11-11T01:08:31;10.00;99.90
16515;DHT22;8370;52.556;7.970;2022-11-11T01:10:57;10.00;99.90
16515;DHT22;8370;52.556;7.970;2022-11-11T01:13:26;10.00;99.90
16515;DHT22;8370;52.556;7.970;2022-11-11T01:15:57;10.00;99.90
16515;DHT22;8370;52.556;7.970;2022-11-11T01:18:25;10.00;99.90
16515;DHT22;8370;52.556;7.970;2022-11-11T01:23:26;9.90;99.90
16515;DHT22;8370;52.556;7.970;2022-11-11T01:25:52;9.90;99.90
16515;DHT22;8370;52.556;7.970;2022-11-11T01:28:18;9.90;99.90
16515;DHT22;8370;52.556;7.970;2022-11-11T01:30:43;9.90;99.90
16515;DHT22;8370;52.556;7.970;2022-11-11T01:33:10;9.90;99.90
16515;DHT22;8370;52.556;7.970;2022-11-11T01:35:40;9.90;99.90
16515;DHT22;8370;52.556;7.970;2022-11-11T01:38:07;9.90;99.90
16515;DHT22;8370;52.556;7.970;2022-11-11T01:40:47;9.90;99.90
16515;DHT22;8370;52.556;7.970;2022-11-11T01:43:17;9.90;99.90
16515;DHT22;8370;52.556;7.970;2022-11-11T01:48:39;9.90;99.90
16515;DHT22;8370;52.556;7.970;2022-11-11T01:51:34;9.90;99.90
16515;DHT22;8370;52.556;7.970;2022-11-11T01:54:07;9.90;99.90
16515;DHT22;8370;52.556;7.970;2022-11-11T01:56:35;9.90;99.90
16515;DHT22;8370;52.556;7.970;2022-11-11T01:59:03;9.80;99.90
16515;DHT22;8370;52.556;7.970;2022-11-11T02:01:30;9.90;99.90
16515;DHT22;8370;52.556;7.970;2022-11-11T02:03:57;9.80;99.90
16515;DHT22;8370;52.556;7.970;2022-11-11T02:06:43;9.80;99.90
16515;DHT22;8370;52.556;7.970;2022-11-11T02:09:10;9.80;99.90
16515;DHT22;8370;52.556;7.970;2022-11-11T02:11:38;9.80;99.90
16515;DHT22;8370;52.556;7.970;2022-11-11T02:14:23;9.70;99.90
16515;DHT22;8370;52.556;7.970;2022-11-11T02:17:05;9.70;99.90
16515;DHT22;8370;52.556;7.970;2022-11-11T02:19:45;9.70;99.90
16515;DHT22;8370;52.556;7.970;2022-11-11T02:22:21;9.60;99.90
16515;DHT22;8370;52.556;7.970;2022-11-11T02:24:48;9.60;99.90
16515;DHT22;8370;52.556;7.970;2022-11-11T02:27:17;9.60;99.90
16515;DHT22;8370;52.556;7.970;2022-11-11T02:29:45;9.50;99.90
16515;DHT22;8370;52.556;7.970;2022-11-11T02:32:11;9.50;99.90
16515;DHT22;8370;52.556;7.970;2022-11-11T02:34:37;9.50;99.90
16515;DHT22;8370;52.556;7.970;2022-11-11T02:37:05;9.40;99.90
16515;DHT22;8370;52.556;7.970;2022-11-11T02:39:34;9.40;99.90
16515;DHT22;8370;52.556;7.970;2022-11-11T02:42:01;9.40;99.90
16515;DHT22;8370;52.556;7.970;2022-11-11T02:44:34;9.40;99.90
16515;DHT22;8370;52.556;7.970;2022-11-11T02:47:00;9.40;99.90
16515;DHT22;8370;52.556;7.970;2022-11-11T02:49:25;9.30;99.90
16515;DHT22;8370;52.556;7.970;2022-11-11T02:51:51;9.30;99.90
16515;DHT22;8370;52.556;7.970;2022-11-11T02:54:16;9.30;99.90
16515;DHT22;8370;52.556;7.970;2022-11-11T02:56:42;9.30;99.90
16515;DHT22;8370;52.556;7.970;2022-11-11T02:59:26;9.30;99.90
16515;DHT22;8370;52.556;7.970;2022-11-11T03:01:51;9.30;99.90
16515;DHT22;8370;52.556;7.970;2022-11-11T03:04:17;9.30;99.90
16515;DHT22;8370;52.556;7.970;2022-11-11T03:06:43;9.30;99.90
16515;DHT22;8370;52.556;7.970;2022-11-11T03:09:08;9.40;99.90
16515;DHT22;8370;52.556;7.970;2022-11-11T03:11:33;9.30;99.90
16515;DHT22;8370;52.556;7.970;2022-11-11T03:14:03;9.30;99.90
16515;DHT22;8370;52.556;7.970;2022-11-11T03:16:28;9.30;99.90
16515;DHT22;8370;52.556;7.970;2022-11-11T03:19:13;9.30;99.90
16515;DHT22;8370;52.556;7.970;2022-11-11T03:21:38;9.30;99.90
16515;DHT22;8370;52.556;7.970;2022-11-11T03:24:04;9.30;99.90
16515;DHT22;8370;52.556;7.970;2022-11-11T03:26:30;9.30;99.90
16515;DHT22;8370;52.556;7.970;2022-11-11T03:28:55;9.30;99.90
16515;DHT22;8370;52.556;7.970;2022-11-11T03:31:21;9.30;99.90
16515;DHT22;8370;52.556;7.970;2022-11-11T03:33:46;9.30;99.90
16515;DHT22;8370;52.556;7.970;2022-11-11T03:36:12;9.30;99.90
16515;DHT22;8370;52.556;7.970;2022-11-11T03:38:38;9.30;99.90
16515;DHT22;8370;52.556;7.970;2022-11-11T03:41:03;9.20;99.90
16515;DHT22;8370;52.556;7.970;2022-11-11T03:43:31;9.20;99.90
16515;DHT22;8370;52.556;7.970;2022-11-11T03:45:58;9.20;99.90
16515;DHT22;8370;52.556;7.970;2022-11-11T03:48:25;9.20;99.90
16515;DHT22;8370;52.556;7.970;2022-11-11T03:50:51;9.20;99.90
16515;DHT22;8370;52.556;7.970;2022-11-11T03:53:18;9.20;99.90
16515;DHT22;8370;52.556;7.970;2022-11-11T03:55:48;9.20;99.90
16515;DHT22;8370;52.556;7.970;2022-11-11T03:58:14;9.20;99.90
16515;DHT22;8370;52.556;7.970;2022-11-11T04:00:40;9.20;99.90
16515;DHT22;8370;52.556;7.970;2022-11-11T04:03:10;9.20;99.90
16515;DHT22;8370;52.556;7.970;2022-11-11T04:05:55;9.20;99.90
16515;DHT22;8370;52.556;7.970;2022-11-11T04:08:39;9.20;99.90
16515;DHT22;8370;52.556;7.970;2022-11-11T04:11:26;9.20;99.90
16515;DHT22;8370;52.556;7.970;2022-11-11T04:13:52;9.10;99.90
16515;DHT22;8370;52.556;7.970;2022-11-11T04:16:39;9.20;99.90
16515;DHT22;8370;52.556;7.970;2022-11-11T04:19:04;9.10;99.90
16515;DHT22;8370;52.556;7.970;2022-11-11T04:21:48;9.10;99.90
16515;DHT22;8370;52.556;7.970;2022-11-11T04:24:16;9.10;99.90
16515;DHT22;8370;52.556;7.970;2022-11-11T04:27:09;9.10;99.90
16515;DHT22;8370;52.556;7.970;2022-11-11T04:29:35;9.10;99.90
16515;DHT22;8370;52.556;7.970;2022-11-11T04:32:05;9.10;99.90
16515;DHT22;8370;52.556;7.970;2022-11-11T04:35:04;9.10;99.90
16515;DHT22;8370;52.556;7.970;2022-11-11T04:37:33;9.10;99.90
16515;DHT22;8370;52.556;7.970;2022-11-11T04:39:59;9.10;99.90
16515;DHT22;8370;52.556;7.970;2022-11-11T04:42:43;9.10;99.90
16515;DHT22;8370;52.556;7.970;2022-11-11T04:45:11;9.10;99.90
16515;DHT22;8370;52.556;7.970;2022-11-11T04:50:27;9.20;99.90
16515;DHT22;8370;52.556;7.970;2022-11-11T04:52:53;9.20;99.90
16515;DHT22;8370;52.556;7.970;2022-11-11T04:55:19;9.20;99.90
16515;DHT22;8370;52.556;7.970;2022-11-11T04:58:03;9.20;99.90
16515;DHT22;8370;52.556;7.970;2022-11-11T05:00:28;9.30;99.90
16515;DHT22;8370;52.556;7.970;2022-11-11T05:02:55;9.30;99.90
16515;DHT22;8370;52.556;7.970;2022-11-11T05:05:44;9.30;99.90
16515;DHT22;8370;52.556;7.970;2022-11-11T05:08:29;9.30;99.90
16515;DHT22;8370;52.556;7.970;2022-11-11T05:11:14;9.30;99.90
16515;DHT22;8370;52.556;7.970;2022-11-11T05:13:40;9.30;99.90
16515;DHT22;8370;52.556;7.970;2022-11-11T05:16:27;9.30;99.90
16515;DHT22;8370;52.556;7.970;2022-11-11T05:19:13;9.30;99.90
16515;DHT22;8370;52.556;7.970;2022-11-11T05:22:08;9.30;99.90
16515;DHT22;8370;52.556;7.970;2022-11-11T05:24:35;9.30;99.90
16515;DHT22;8370;52.556;7.970;2022-11-11T05:27:19;9.30;99.90
16515;DHT22;8370;52.556;7.970;2022-11-11T05:29:46;9.20;99.90
16515;DHT22;8370;52.556;7.970;2022-11-11T05:32:15;9.20;99.90
16515;DHT22;8370;52.556;7.970;2022-11-11T05:34:41;9.20;99.90
16515;DHT22;8370;52.556;7.970;2022-11-11T05:37:07;9.30;99.90
16515;DHT22;8370;52.556;7.970;2022-11-11T05:39:32;9.20;99.90
16515;DHT22;8370;52.556;7.970;2022-11-11T05:41:58;9.30;99.90
16515;DHT22;8370;52.556;7.970;2022-11-11T05:44:23;9.30;99.90
16515;DHT22;8370;52.556;7.970;2022-11-11T05:46:49;9.30;99.90
16515;DHT22;8370;52.556;7.970;2022-11-11T05:49:14;9.30;99.90
16515;DHT22;8370;52.556;7.970;2022-11-11T05:51:41;9.20;99.90
16515;DHT22;8370;52.556;7.970;2022-11-11T05:54:07;9.20;99.90
16515;DHT22;8370;52.556;7.970;2022-11-11T05:56:32;9.30;99.90
16515;DHT22;8370;52.556;7.970;2022-11-11T05:58:58;9.20;99.90
16515;DHT22;8370;52.556;7.970;2022-11-11T06:01:23;9.30;99.90
16515;DHT22;8370;52.556;7.970;2022-11-11T06:03:49;9.20;99.90
16515;DHT22;8370;52.556;7.970;2022-11-11T06:06:14;9.20;99.90
16515;DHT22;8370;52.556;7.970;2022-11-11T06:08:40;9.20;99.90
16515;DHT22;8370;52.556;7.970;2022-11-11T06:11:06;9.20;99.90
16515;DHT22;8370;52.556;7.970;2022-11-11T06:13:31;9.20;99.90
16515;DHT22;8370;52.556;7.970;2022-11-11T06:15:58;9.20;99.90
16515;DHT22;8370;52.556;7.970;2022-11-11T06:18:23;9.20;99.90
16515;DHT22;8370;52.556;7.970;2022-11-11T06:20:53;9.20;99.90
16515;DHT22;8370;52.556;7.970;2022-11-11T06:23:19;9.20;99.90
16515;DHT22;8370;52.556;7.970;2022-11-11T06:25:45;9.20;99.90
16515;DHT22;8370;52.556;7.970;2022-11-11T06:28:29;9.20;99.90
16515;DHT22;8370;52.556;7.970;2022-11-11T06:30:54;9.20;99.90
16515;DHT22;8370;52.556;7.970;2022-11-11T06:33:20;9.20;99.90
16515;DHT22;8370;52.556;7.970;2022-11-11T06:35:46;9.20;99.90
16515;DHT22;8370;52.556;7.970;2022-11-11T06:38:12;9.20;99.90
16515;DHT22;8370;52.556;7.970;2022-11-11T06:40:38;9.20;99.90
16515;DHT22;8370;52.556;7.970;2022-11-11T06:43:03;9.20;99.90
16515;DHT22;8370;52.556;7.970;2022-11-11T06:45:30;9.30;99.90
16515;DHT22;8370;52.556;7.970;2022-11-11T06:47:56;9.20;99.90
16515;DHT22;8370;52.556;7.970;2022-11-11T06:50:21;9.20;99.90
16515;DHT22;8370;52.556;7.970;2022-11-11T06:52:47;9.20;99.90
16515;DHT22;8370;52.556;7.970;2022-11-11T06:55:13;9.20;99.90
16515;DHT22;8370;52.556;7.970;2022-11-11T06:57:38;9.20;99.90
16515;DHT22;8370;52.556;7.970;2022-11-11T07:00:05;9.30;99.90
16515;DHT22;8370;52.556;7.970;2022-11-11T07:02:31;9.30;99.90
16515;DHT22;8370;52.556;7.970;2022-11-11T07:04:56;9.30;99.90
16515;DHT22;8370;52.556;7.970;2022-11-11T07:07:22;9.30;99.90
16515;DHT22;8370;52.556;7.970;2022-11-11T07:09:47;9.30;99.90
16515;DHT22;8370;52.556;7.970;2022-11-11T07:12:13;9.30;99.90
16515;DHT22;8370;52.556;7.970;2022-11-11T07:14:39;9.30;99.90
16515;DHT22;8370;52.556;7.970;2022-11-11T07:17:04;9.30;99.90
16515;DHT22;8370;52.556;7.970;2022-11-11T07:19:30;9.30;99.90
16515;DHT22;8370;52.556;7.970;2022-11-11T07:21:55;9.20;99.90
16515;DHT22;8370;52.556;7.970;2022-11-11T07:24:21;9.20;99.90
16515;DHT22;8370;52.556;7.970;2022-11-11T07:26:47;9.20;99.90
16515;DHT22;8370;52.556;7.970;2022-11-11T07:29:12;9.10;99.90
16515;DHT22;8370;52.556;7.970;2022-11-11T07:31:40;9.10;99.90
16515;DHT22;8370;52.556;7.970;2022-11-11T07:34:05;9.10;99.90
16515;DHT22;8370;52.556;7.970;2022-11-11T07:36:31;9.00;99.90
16515;DHT22;8370;52.556;7.970;2022-11-11T07:38:56;9.00;99.90
16515;DHT22;8370;52.556;7.970;2022-11-11T07:41:22;9.00;99.90
16515;DHT22;8370;52.556;7.970;2022-11-11T07:43:47;9.00;99.90
16515;DHT22;8370;52.556;7.970;2022-11-11T07:46:13;9.00;99.90
16515;DHT22;8370;52.556;7.970;2022-11-11T07:48:39;9.00;99.90
16515;DHT22;8370;52.556;7.970;2022-11-11T07:51:04;9.00;99.90
16515;DHT22;8370;52.556;7.970;2022-11-11T07:53:30;9.00;99.90
16515;DHT22;8370;52.556;7.970;2022-11-11T07:55:55;9.00;99.90
16515;DHT22;8370;52.556;7.970;2022-11-11T07:58:21;9.00;99.90
16515;DHT22;8370;52.556;7.970;2022-11-11T08:00:46;9.10;99.90
16515;DHT22;8370;52.556;7.970;2022-11-11T08:03:12;9.10;99.90
16515;DHT22;8370;52.556;7.970;2022-11-11T08:05:37;9.10;99.90
16515;DHT22;8370;52.556;7.970;2022-11-11T08:08:07;9.10;99.90
16515;DHT22;8370;52.556;7.970;2022-11-11T08:10:33;9.10;99.90
16515;DHT22;8370;52.556;7.970;2022-11-11T08:12:59;9.10;99.90
16515;DHT22;8370;52.556;7.970;2022-11-11T08:15:43;9.20;99.90
16515;DHT22;8370;52.556;7.970;2022-11-11T08:18:09;9.20;99.90
16515;DHT22;8370;52.556;7.970;2022-11-11T08:20:34;9.20;99.90
16515;DHT22;8370;52.556;7.970;2022-11-11T08:23:00;9.20;99.90
16515;DHT22;8370;52.556;7.970;2022-11-11T08:25:29;9.20;99.90
16515;DHT22;8370;52.556;7.970;2022-11-11T08:28:03;9.30;99.90
16515;DHT22;8370;52.556;7.970;2022-11-11T08:30:32;9.30;99.90
16515;DHT22;8370;52.556;7.970;2022-11-11T08:32:58;9.40;99.90
16515;DHT22;8370;52.556;7.970;2022-11-11T08:35:25;9.40;99.90
16515;DHT22;8370;52.556;7.970;2022-11-11T08:37:51;9.50;99.90
16515;DHT22;8370;52.556;7.970;2022-11-11T08:40:17;9.50;99.90
16515;DHT22;8370;52.556;7.970;2022-11-11T08:42:42;9.50;99.90
16515;DHT22;8370;52.556;7.970;2022-11-11T08:45:08;9.50;99.90
16515;DHT22;8370;52.556;7.970;2022-11-11T08:47:34;9.60;99.90
16515;DHT22;8370;52.556;7.970;2022-11-11T08:50:01;9.60;99.90
16515;DHT22;8370;52.556;7.970;2022-11-11T08:52:26;9.70;99.90
16515;DHT22;8370;52.556;7.970;2022-11-11T08:54:52;9.70;99.90
16515;DHT22;8370;52.556;7.970;2022-11-11T08:57:17;9.80;99.90
16515;DHT22;8370;52.556;7.970;2022-11-11T08:59:43;9.80;99.90
16515;DHT22;8370;52.556;7.970;2022-11-11T09:02:10;9.80;99.90
16515;DHT22;8370;52.556;7.970;2022-11-11T09:04:37;9.80;99.90
16515;DHT22;8370;52.556;7.970;2022-11-11T09:07:04;9.90;99.90
16515;DHT22;8370;52.556;7.970;2022-11-11T09:09:29;9.90;99.90
16515;DHT22;8370;52.556;7.970;2022-11-11T09:11:55;9.90;99.90
16515;DHT22;8370;52.556;7.970;2022-11-11T09:14:20;10.00;99.90
16515;DHT22;8370;52.556;7.970;2022-11-11T09:16:46;10.00;99.90
16515;DHT22;8370;52.556;7.970;2022-11-11T09:19:11;10.10;99.90
16515;DHT22;8370;52.556;7.970;2022-11-11T09:21:37;10.20;99.90
16515;DHT22;8370;52.556;7.970;2022-11-11T09:24:03;10.20;99.90
16515;DHT22;8370;52.556;7.970;2022-11-11T09:26:28;10.20;99.90
16515;DHT22;8370;52.556;7.970;2022-11-11T09:28:54;10.30;99.90
16515;DHT22;8370;52.556;7.970;2022-11-11T09:31:19;10.40;99.90
16515;DHT22;8370;52.556;7.970;2022-11-11T09:33:45;10.40;99.90
16515;DHT22;8370;52.556;7.970;2022-11-11T09:36:10;10.40;99.90
16515;DHT22;8370;52.556;7.970;2022-11-11T09:38:36;10.50;99.90
16515;DHT22;8370;52.556;7.970;2022-11-11T09:41:06;10.50;99.90
16515;DHT22;8370;52.556;7.970;2022-11-11T09:44:15;10.60;99.90
16515;DHT22;8370;52.556;7.970;2022-11-11T09:46:43;10.60;99.90
16515;DHT22;8370;52.556;7.970;2022-11-11T09:52:19;10.80;99.90
16515;DHT22;8370;52.556;7.970;2022-11-11T09:57:46;10.90;99.90
16515;DHT22;8370;52.556;7.970;2022-11-11T10:00:21;10.90;99.90
16515;DHT22;8370;52.556;7.970;2022-11-11T10:05:49;11.10;99.90
16515;DHT22;8370;52.556;7.970;2022-11-11T10:10:50;11.20;99.90
16515;DHT22;8370;52.556;7.970;2022-11-11T10:15:56;11.30;99.90
16515;DHT22;8370;52.556;7.970;2022-11-11T10:21:31;11.40;99.90
16515;DHT22;8370;52.556;7.970;2022-11-11T10:24:01;11.50;99.90
16515;DHT22;8370;52.556;7.970;2022-11-11T10:29:02;11.70;99.90
16515;DHT22;8370;52.556;7.970;2022-11-11T10:31:29;11.80;99.90
16515;DHT22;8370;52.556;7.970;2022-11-11T10:34:07;11.80;99.90
16515;DHT22;8370;52.556;7.970;2022-11-11T10:36:43;11.90;99.90
16515;DHT22;8370;52.556;7.970;2022-11-11T10:39:14;12.00;99.90
16515;DHT22;8370;52.556;7.970;2022-11-11T10:41:46;12.10;99.90
16515;DHT22;8370;52.556;7.970;2022-11-11T10:44:27;12.20;99.90
16515;DHT22;8370;52.556;7.970;2022-11-11T10:49:46;12.30;99.90
16515;DHT22;8370;52.556;7.970;2022-11-11T10:52:19;12.30;99.90
16515;DHT22;8370;52.556;7.970;2022-11-11T10:58:03;12.50;99.90
16515;DHT22;8370;52.556;7.970;2022-11-11T11:00:33;12.60;99.90
16515;DHT22;8370;52.556;7.970;2022-11-11T11:03:14;12.70;99.90
16515;DHT22;8370;52.556;7.970;2022-11-11T11:05:51;12.80;99.90
16515;DHT22;8370;52.556;7.970;2022-11-11T11:08:26;12.90;99.90
16515;DHT22;8370;52.556;7.970;2022-11-11T11:11:08;13.00;99.90
16515;DHT22;8370;52.556;7.970;2022-11-11T11:16:24;13.20;99.90
16515;DHT22;8370;52.556;7.970;2022-11-11T11:19:13;13.30;99.90
16515;DHT22;8370;52.556;7.970;2022-11-11T11:21:56;13.40;99.90
16515;DHT22;8370;52.556;7.970;2022-11-11T11:26:53;13.50;99.90
16515;DHT22;8370;52.556;7.970;2022-11-11T11:29:44;13.50;99.90
16515;DHT22;8370;52.556;7.970;2022-11-11T11:32:18;13.50;99.90
16515;DHT22;8370;52.556;7.970;2022-11-11T11:34:52;13.50;99.90
16515;DHT22;8370;52.556;7.970;2022-11-11T11:37:19;13.50;99.90
16515;DHT22;8370;52.556;7.970;2022-11-11T11:39:45;13.50;99.90
16515;DHT22;8370;52.556;7.970;2022-11-11T11:42:44;13.60;99.90
16515;DHT22;8370;52.556;7.970;2022-11-11T11:50:58;13.70;99.90
16515;DHT22;8370;52.556;7.970;2022-11-11T11:56:06;13.70;99.90
16515;DHT22;8370;52.556;7.970;2022-11-11T12:07:26;14.60;99.90
16515;DHT22;8370;52.556;7.970;2022-11-11T12:13:03;15.50;99.90
16515;DHT22;8370;52.556;7.970;2022-11-11T12:16:01;16.10;99.90
16515;DHT22;8370;52.556;7.970;2022-11-11T12:18:34;16.60;99.90
16515;DHT22;8370;52.556;7.970;2022-11-11T12:21:10;17.00;99.90
16515;DHT22;8370;52.556;7.970;2022-11-11T12:26:36;18.00;99.90
16515;DHT22;8370;52.556;7.970;2022-11-11T12:29:28;18.50;99.90
16515;DHT22;8370;52.556;7.970;2022-11-11T12:40:58;18.30;99.90
16515;DHT22;8370;52.556;7.970;2022-11-11T12:43:39;18.00;99.90
16515;DHT22;8370;52.556;7.970;2022-11-11T12:46:26;18.00;99.90
16515;DHT22;8370;52.556;7.970;2022-11-11T13:00:03;19.40;99.90
16515;DHT22;8370;52.556;7.970;2022-11-11T13:05:21;19.30;99.90
16515;DHT22;8370;52.556;7.970;2022-11-11T13:07:57;19.10;99.90
16515;DHT22;8370;52.556;7.970;2022-11-11T13:10:51;19.00;99.90
16515;DHT22;8370;52.556;7.970;2022-11-11T13:16:24;18.00;99.90
16515;DHT22;8370;52.556;7.970;2022-11-11T13:18:59;17.60;99.90
16515;DHT22;8370;52.556;7.970;2022-11-11T13:21:44;17.30;99.90
16515;DHT22;8370;52.556;7.970;2022-11-11T13:24:14;16.90;99.90
16515;DHT22;8370;52.556;7.970;2022-11-11T13:27:05;16.60;99.90
16515;DHT22;8370;52.556;7.970;2022-11-11T13:32:15;16.10;99.90
16515;DHT22;8370;52.556;7.970;2022-11-11T13:34:42;15.90;99.90
16515;DHT22;8370;52.556;7.970;2022-11-11T13:37:30;15.60;99.90
16515;DHT22;8370;52.556;7.970;2022-11-11T13:40:06;15.50;99.90
16515;DHT22;8370;52.556;7.970;2022-11-11T13:42:41;15.40;99.90
16515;DHT22;8370;52.556;7.970;2022-11-11T13:45:34;15.20;99.90
16515;DHT22;8370;52.556;7.970;2022-11-11T13:48:01;15.10;99.90
16515;DHT22;8370;52.556;7.970;2022-11-11T13:50:35;15.00;99.90
16515;DHT22;8370;52.556;7.970;2022-11-11T13:53:13;15.00;99.90
16515;DHT22;8370;52.556;7.970;2022-11-11T13:55:42;15.00;99.90
16515;DHT22;8370;52.556;7.970;2022-11-11T13:58:39;14.90;99.90
16515;DHT22;8370;52.556;7.970;2022-11-11T14:01:08;14.90;99.90
16515;DHT22;8370;52.556;7.970;2022-11-11T14:03:59;14.90;99.90
16515;DHT22;8370;52.556;7.970;2022-11-11T14:06:50;14.90;99.90
16515;DHT22;8370;52.556;7.970;2022-11-11T14:09:52;14.90;99.90
16515;DHT22;8370;52.556;7.970;2022-11-11T14:12:36;14.80;99.90
16515;DHT22;8370;52.556;7.970;2022-11-11T14:15:03;14.80;99.90
16515;DHT22;8370;52.556;7.970;2022-11-11T14:17:33;14.70;99.90
16515;DHT22;8370;52.556;7.970;2022-11-11T14:20:04;14.70;99.90
16515;DHT22;8370;52.556;7.970;2022-11-11T14:22:44;14.60;99.90
16515;DHT22;8370;52.556;7.970;2022-11-11T14:25:19;14.60;99.90
16515;DHT22;8370;52.556;7.970;2022-11-11T14:27:47;14.60;99.90
16515;DHT22;8370;52.556;7.970;2022-11-11T14:30:37;14.50;99.90
16515;DHT22;8370;52.556;7.970;2022-11-11T14:33:17;14.50;99.90
16515;DHT22;8370;52.556;7.970;2022-11-11T14:39:01;14.40;99.90
16515;DHT22;8370;52.556;7.970;2022-11-11T14:49:46;14.10;99.90
16515;DHT22;8370;52.556;7.970;2022-11-11T14:52:39;14.10;99.90
16515;DHT22;8370;52.556;7.970;2022-11-11T14:55:25;14.00;99.90
16515;DHT22;8370;52.556;7.970;2022-11-11T14:58:17;14.00;99.90
16515;DHT22;8370;52.556;7.970;2022-11-11T15:03:32;13.80;99.90
16515;DHT22;8370;52.556;7.970;2022-11-11T15:09:06;13.70;99.90
16515;DHT22;8370;52.556;7.970;2022-11-11T15:14:58;13.60;99.90
16515;DHT22;8370;52.556;7.970;2022-11-11T15:17:32;13.50;99.90
16515;DHT22;8370;52.556;7.970;2022-11-11T15:25:45;13.30;99.90
16515;DHT22;8370;52.556;7.970;2022-11-11T15:34:20;13.00;99.90
16515;DHT22;8370;52.556;7.970;2022-11-11T15:37:10;12.90;99.90
16515;DHT22;8370;52.556;7.970;2022-11-11T15:39:43;12.70;99.90
16515;DHT22;8370;52.556;7.970;2022-11-11T15:42:28;12.70;99.90
16515;DHT22;8370;52.556;7.970;2022-11-11T15:44:55;12.60;99.90
16515;DHT22;8370;52.556;7.970;2022-11-11T15:47:22;12.50;99.90
16515;DHT22;8370;52.556;7.970;2022-11-11T15:49:49;12.50;99.90
16515;DHT22;8370;52.556;7.970;2022-11-11T15:52:27;12.40;99.90
16515;DHT22;8370;52.556;7.970;2022-11-11T15:54:54;12.30;99.90
16515;DHT22;8370;52.556;7.970;2022-11-11T15:57:27;12.20;99.90
16515;DHT22;8370;52.556;7.970;2022-11-11T15:59:55;12.20;99.90
16515;DHT22;8370;52.556;7.970;2022-11-11T16:02:26;12.10;99.90
16515;DHT22;8370;52.556;7.970;2022-11-11T16:04:56;12.00;99.90
16515;DHT22;8370;52.556;7.970;2022-11-11T16:07:29;11.90;99.90
16515;DHT22;8370;52.556;7.970;2022-11-11T16:09:58;11.90;99.90
16515;DHT22;8370;52.556;7.970;2022-11-11T16:12:35;11.80;99.90
16515;DHT22;8370;52.556;7.970;2022-11-11T16:15:06;11.70;99.90
16515;DHT22;8370;52.556;7.970;2022-11-11T16:17:37;11.60;99.90
16515;DHT22;8370;52.556;7.970;2022-11-11T16:20:04;11.50;99.90
16515;DHT22;8370;52.556;7.970;2022-11-11T16:22:34;11.50;99.90
16515;DHT22;8370;52.556;7.970;2022-11-11T16:25:01;11.40;99.90
16515;DHT22;8370;52.556;7.970;2022-11-11T16:27:31;11.30;99.90
16515;DHT22;8370;52.556;7.970;2022-11-11T16:30:35;11.30;99.90
16515;DHT22;8370;52.556;7.970;2022-11-11T16:33:00;11.30;99.90
16515;DHT22;8370;52.556;7.970;2022-11-11T16:35:27;11.30;99.90
16515;DHT22;8370;52.556;7.970;2022-11-11T16:37:54;11.20;99.90
16515;DHT22;8370;52.556;7.970;2022-11-11T16:40:26;11.30;99.90
16515;DHT22;8370;52.556;7.970;2022-11-11T16:42:52;11.30;99.90
16515;DHT22;8370;52.556;7.970;2022-11-11T16:45:20;11.20;99.90
16515;DHT22;8370;52.556;7.970;2022-11-11T16:47:48;11.20;99.90
16515;DHT22;8370;52.556;7.970;2022-11-11T16:52:53;11.20;99.90
16515;DHT22;8370;52.556;7.970;2022-11-11T16:55:26;11.20;99.90
16515;DHT22;8370;52.556;7.970;2022-11-11T16:57:59;11.10;99.90
16515;DHT22;8370;52.556;7.970;2022-11-11T17:00:25;11.10;99.90
16515;DHT22;8370;52.556;7.970;2022-11-11T17:03:20;11.00;99.90
16515;DHT22;8370;52.556;7.970;2022-11-11T17:05:47;11.00;99.90
16515;DHT22;8370;52.556;7.970;2022-11-11T17:08:33;10.90;99.90
16515;DHT22;8370;52.556;7.970;2022-11-11T17:11:00;10.80;99.90
16515;DHT22;8370;52.556;7.970;2022-11-11T17:13:26;10.70;99.90
16515;DHT22;8370;52.556;7.970;2022-11-11T17:15:53;10.60;99.90
16515;DHT22;8370;52.556;7.970;2022-11-11T17:18:20;10.50;99.90
16515;DHT22;8370;52.556;7.970;2022-11-11T17:20:46;10.40;99.90
16515;DHT22;8370;52.556;7.970;2022-11-11T17:23:11;10.30;99.90
16515;DHT22;8370;52.556;7.970;2022-11-11T17:25:37;10.20;99.90
16515;DHT22;8370;52.556;7.970;2022-11-11T17:28:03;10.10;99.90
16515;DHT22;8370;52.556;7.970;2022-11-11T17:30:28;10.00;99.90
16515;DHT22;8370;52.556;7.970;2022-11-11T17:32:54;9.90;99.90
16515;DHT22;8370;52.556;7.970;2022-11-11T17:35:19;9.80;99.90
16515;DHT22;8370;52.556;7.970;2022-11-11T17:37:45;9.80;99.90
16515;DHT22;8370;52.556;7.970;2022-11-11T17:40:11;9.60;99.90
16515;DHT22;8370;52.556;7.970;2022-11-11T17:42:36;9.60;99.90
16515;DHT22;8370;52.556;7.970;2022-11-11T17:45:03;9.50;99.90
16515;DHT22;8370;52.556;7.970;2022-11-11T17:47:29;9.50;99.90
16515;DHT22;8370;52.556;7.970;2022-11-11T17:49:56;9.40;99.90
16515;DHT22;8370;52.556;7.970;2022-11-11T17:52:22;9.30;99.90
16515;DHT22;8370;52.556;7.970;2022-11-11T17:54:48;9.30;99.90
16515;DHT22;8370;52.556;7.970;2022-11-11T17:57:13;9.20;99.90
16515;DHT22;8370;52.556;7.970;2022-11-11T17:59:39;9.10;99.90
16515;DHT22;8370;52.556;7.970;2022-11-11T18:02:04;9.00;99.90
16515;DHT22;8370;52.556;7.970;2022-11-11T18:04:30;9.00;99.90
16515;DHT22;8370;52.556;7.970;2022-11-11T18:06:56;9.00;99.90
16515;DHT22;8370;52.556;7.970;2022-11-11T18:09:21;8.90;99.90
16515;DHT22;8370;52.556;7.970;2022-11-11T18:11:47;8.90;99.90
16515;DHT22;8370;52.556;7.970;2022-11-11T18:14:12;8.80;99.90
16515;DHT22;8370;52.556;7.970;2022-11-11T18:16:42;8.80;99.90
16515;DHT22;8370;52.556;7.970;2022-11-11T18:19:08;8.80;99.90
16515;DHT22;8370;52.556;7.970;2022-11-11T18:21:33;8.80;99.90
16515;DHT22;8370;52.556;7.970;2022-11-11T18:24:03;8.70;99.90